sensor_id;sensor_type;location;lat;lon;timestamp;temperature;humidity
12817;DHT22;6473;51.552;6.716;2024-03-02T00:00:08;8.10;85.50
12817;DHT22;6473;51.552;6.716;2024-03-02T00:02:40;8.10;85.40
12817;DHT22;6473;51.552;6.716;2024-03-02T00:05:31;8.20;83.60
12817;DHT22;6473;51.552;6.716;2024-03-02T00:07:58;8.20;84.40
12817;DHT22;6473;51.552;6.716;2024-03-02T00:10:26;8.20;84.30
12817;DHT22;6473;51.552;6.716;2024-03-02T00:13:30;10.40;86.00
12817;DHT22;6473;51.552;6.716;2024-03-02T00:33:46;8.50;78.80
12817;DHT22;6473;51.552;6.716;2024-03-02T00:36:21;5.40;75.00
12817;DHT22;6473;51.552;6.716;2024-03-02T00:38:54;8.60;77.40
12817;DHT22;6473;51.552;6.716;2024-03-02T00:41:24;8.60;76.50
12817;DHT22;6473;51.552;6.716;2024-03-02T00:43:58;12.70;78.80
12817;DHT22;6473;51.552;6.716;2024-03-02T00:46:28;8.70;75.20
12817;DHT22;6473;51.552;6.716;2024-03-02T00:48:59;8.70;74.70
12817;DHT22;6473;51.552;6.716;2024-03-02T00:51:27;8.70;74.50
12817;DHT22;6473;51.552;6.716;2024-03-02T00:53:55;8.80;73.20
12817;DHT22;6473;51.552;6.716;2024-03-02T00:56:22;8.80;73.90
12817;DHT22;6473;51.552;6.716;2024-03-02T00:58:49;8.80;72.80
12817;DHT22;6473;51.552;6.716;2024-03-02T01:01:16;8.90;72.40
12817;DHT22;6473;51.552;6.716;2024-03-02T01:03:43;8.90;71.50
12817;DHT22;6473;51.552;6.716;2024-03-02T01:06:12;8.90;71.30
12817;DHT22;6473;51.552;6.716;2024-03-02T01:08:39;8.90;72.10
12817;DHT22;6473;51.552;6.716;2024-03-02T01:11:06;9.00;68.70
12817;DHT22;6473;51.552;6.716;2024-03-02T01:13:32;9.00;69.10
12817;DHT22;6473;51.552;6.716;2024-03-02T01:18:27;9.00;69.20
12817;DHT22;6473;51.552;6.716;2024-03-02T01:23:23;9.10;68.60
12817;DHT22;6473;51.552;6.716;2024-03-02T01:25:50;9.10;69.20
12817;DHT22;6473;51.552;6.716;2024-03-02T01:28:18;10.00;70.20
12817;DHT22;6473;51.552;6.716;2024-03-02T01:33:13;9.00;69.60
12817;DHT22;6473;51.552;6.716;2024-03-02T01:35:40;9.00;70.30
12817;DHT22;6473;51.552;6.716;2024-03-02T01:38:07;8.90;72.40
12817;DHT22;6473;51.552;6.716;2024-03-02T01:40:36;8.90;73.10
12817;DHT22;6473;51.552;6.716;2024-03-02T01:43:04;8.90;74.00
12817;DHT22;6473;51.552;6.716;2024-03-02T01:45:31;8.80;72.50
12817;DHT22;6473;51.552;6.716;2024-03-02T01:47:58;8.80;72.50
12817;DHT22;6473;51.552;6.716;2024-03-02T01:50:27;8.80;71.60
12817;DHT22;6473;51.552;6.716;2024-03-02T01:52:54;8.80;72.60
12817;DHT22;6473;51.552;6.716;2024-03-02T01:55:21;8.80;72.50
12817;DHT22;6473;51.552;6.716;2024-03-02T01:57:50;8.80;73.00
12817;DHT22;6473;51.552;6.716;2024-03-02T02:00:18;8.80;71.00
12817;DHT22;6473;51.552;6.716;2024-03-02T02:02:46;8.90;71.60
12817;DHT22;6473;51.552;6.716;2024-03-02T02:05:13;8.90;71.40
12817;DHT22;6473;51.552;6.716;2024-03-02T02:07:40;9.00;70.50
12817;DHT22;6473;51.552;6.716;2024-03-02T02:10:07;9.10;69.00
12817;DHT22;6473;51.552;6.716;2024-03-02T02:12:35;9.00;68.10
12817;DHT22;6473;51.552;6.716;2024-03-02T02:15:03;9.00;68.40
12817;DHT22;6473;51.552;6.716;2024-03-02T02:17:31;9.00;69.20
12817;DHT22;6473;51.552;6.716;2024-03-02T02:19:58;9.00;68.00
12817;DHT22;6473;51.552;6.716;2024-03-02T02:22:26;9.20;61.80
12817;DHT22;6473;51.552;6.716;2024-03-02T02:24:52;9.20;61.00
12817;DHT22;6473;51.552;6.716;2024-03-02T02:27:20;10.60;62.40
12817;DHT22;6473;51.552;6.716;2024-03-02T02:29:47;11.30;61.40
12817;DHT22;6473;51.552;6.716;2024-03-02T02:32:13;9.30;59.30
12817;DHT22;6473;51.552;6.716;2024-03-02T02:34:40;9.30;60.90
12817;DHT22;6473;51.552;6.716;2024-03-02T02:37:07;9.50;55.30
12817;DHT22;6473;51.552;6.716;2024-03-02T02:39:35;9.50;56.50
12817;DHT22;6473;51.552;6.716;2024-03-02T02:42:02;9.40;59.10
12817;DHT22;6473;51.552;6.716;2024-03-02T02:44:29;10.10;60.20
12817;DHT22;6473;51.552;6.716;2024-03-02T02:46:56;9.40;59.00
12817;DHT22;6473;51.552;6.716;2024-03-02T02:49:23;9.40;59.60
12817;DHT22;6473;51.552;6.716;2024-03-02T02:51:50;10.50;60.90
12817;DHT22;6473;51.552;6.716;2024-03-02T02:54:17;9.30;61.90
12817;DHT22;6473;51.552;6.716;2024-03-02T02:56:45;9.30;62.40
12817;DHT22;6473;51.552;6.716;2024-03-02T03:01:39;9.40;59.30
12817;DHT22;6473;51.552;6.716;2024-03-02T03:04:06;9.40;60.20
12817;DHT22;6473;51.552;6.716;2024-03-02T03:06:33;9.30;61.80
12817;DHT22;6473;51.552;6.716;2024-03-02T03:09:00;9.30;61.10
12817;DHT22;6473;51.552;6.716;2024-03-02T03:11:27;9.20;62.30
12817;DHT22;6473;51.552;6.716;2024-03-02T03:13:55;9.20;64.00
12817;DHT22;6473;51.552;6.716;2024-03-02T03:16:22;9.10;64.40
12817;DHT22;6473;51.552;6.716;2024-03-02T03:18:49;9.30;65.30
12817;DHT22;6473;51.552;6.716;2024-03-02T03:21:18;9.20;68.40
12817;DHT22;6473;51.552;6.716;2024-03-02T03:23:45;9.10;70.90
12817;DHT22;6473;51.552;6.716;2024-03-02T03:26:12;9.10;71.70
12817;DHT22;6473;51.552;6.716;2024-03-02T03:28:39;9.00;74.10
12817;DHT22;6473;51.552;6.716;2024-03-02T03:31:07;8.80;75.90
12817;DHT22;6473;51.552;6.716;2024-03-02T03:33:34;12.10;78.60
12817;DHT22;6473;51.552;6.716;2024-03-02T03:36:01;8.70;81.30
12817;DHT22;6473;51.552;6.716;2024-03-02T03:38:29;8.70;81.20
12817;DHT22;6473;51.552;6.716;2024-03-02T03:40:55;8.70;82.60
12817;DHT22;6473;51.552;6.716;2024-03-02T03:43:22;11.20;84.40
12817;DHT22;6473;51.552;6.716;2024-03-02T03:45:49;11.20;85.30
12817;DHT22;6473;51.552;6.716;2024-03-02T03:48:17;8.70;84.70
12817;DHT22;6473;51.552;6.716;2024-03-02T03:50:45;10.00;87.00
12817;DHT22;6473;51.552;6.716;2024-03-02T03:53:12;8.80;87.50
12817;DHT22;6473;51.552;6.716;2024-03-02T03:55:40;8.60;89.00
12817;DHT22;6473;51.552;6.716;2024-03-02T03:58:07;8.60;90.20
12817;DHT22;6473;51.552;6.716;2024-03-02T04:00:34;8.50;90.40
12817;DHT22;6473;51.552;6.716;2024-03-02T04:03:00;8.60;91.10
12817;DHT22;6473;51.552;6.716;2024-03-02T04:05:28;8.40;91.80
12817;DHT22;6473;51.552;6.716;2024-03-02T04:07:55;8.50;92.20
12817;DHT22;6473;51.552;6.716;2024-03-02T04:10:25;9.30;93.60
12817;DHT22;6473;51.552;6.716;2024-03-02T04:12:52;8.40;93.70
12817;DHT22;6473;51.552;6.716;2024-03-02T04:15:19;8.30;97.70
12817;DHT22;6473;51.552;6.716;2024-03-02T04:17:46;8.40;98.20
12817;DHT22;6473;51.552;6.716;2024-03-02T04:20:13;10.00;99.90
12817;DHT22;6473;51.552;6.716;2024-03-02T04:22:41;8.20;99.90
12817;DHT22;6473;51.552;6.716;2024-03-02T04:25:08;8.10;99.90
12817;DHT22;6473;51.552;6.716;2024-03-02T04:30:04;8.00;99.90
12817;DHT22;6473;51.552;6.716;2024-03-02T04:32:32;8.00;99.90
12817;DHT22;6473;51.552;6.716;2024-03-02T04:34:59;10.60;99.90
12817;DHT22;6473;51.552;6.716;2024-03-02T04:37:25;8.00;99.90
12817;DHT22;6473;51.552;6.716;2024-03-02T04:39:54;7.90;99.90
12817;DHT22;6473;51.552;6.716;2024-03-02T04:42:20;7.90;99.90
12817;DHT22;6473;51.552;6.716;2024-03-02T04:44:48;7.90;99.90
12817;DHT22;6473;51.552;6.716;2024-03-02T04:47:15;7.90;99.90
12817;DHT22;6473;51.552;6.716;2024-03-02T04:49:41;7.80;99.90
12817;DHT22;6473;51.552;6.716;2024-03-02T04:52:09;7.70;99.90
12817;DHT22;6473;51.552;6.716;2024-03-02T04:54:35;7.80;99.90
12817;DHT22;6473;51.552;6.716;2024-03-02T04:57:24;7.70;99.90
12817;DHT22;6473;51.552;6.716;2024-03-02T04:59:51;8.70;99.90
12817;DHT22;6473;51.552;6.716;2024-03-02T05:02:18;7.70;99.90
12817;DHT22;6473;51.552;6.716;2024-03-02T05:04:44;7.70;99.90
12817;DHT22;6473;51.552;6.716;2024-03-02T05:07:11;11.00;99.90
12817;DHT22;6473;51.552;6.716;2024-03-02T05:09:38;7.60;99.90
12817;DHT22;6473;51.552;6.716;2024-03-02T05:12:06;7.60;99.90
12817;DHT22;6473;51.552;6.716;2024-03-02T05:15:07;7.50;99.90
12817;DHT22;6473;51.552;6.716;2024-03-02T05:17:35;7.50;99.90
12817;DHT22;6473;51.552;6.716;2024-03-02T05:20:03;7.40;99.90
12817;DHT22;6473;51.552;6.716;2024-03-02T05:22:30;7.30;99.90
12817;DHT22;6473;51.552;6.716;2024-03-02T05:24:59;7.20;99.90
12817;DHT22;6473;51.552;6.716;2024-03-02T05:27:26;7.20;99.90
12817;DHT22;6473;51.552;6.716;2024-03-02T05:29:53;7.10;99.90
12817;DHT22;6473;51.552;6.716;2024-03-02T05:32:21;7.10;99.90
12817;DHT22;6473;51.552;6.716;2024-03-02T05:34:48;9.30;99.90
12817;DHT22;6473;51.552;6.716;2024-03-02T05:37:16;7.10;99.90
12817;DHT22;6473;51.552;6.716;2024-03-02T05:39:43;7.10;99.90
12817;DHT22;6473;51.552;6.716;2024-03-02T05:42:10;9.30;99.90
12817;DHT22;6473;51.552;6.716;2024-03-02T05:44:37;7.10;99.90
12817;DHT22;6473;51.552;6.716;2024-03-02T05:47:04;7.20;99.90
12817;DHT22;6473;51.552;6.716;2024-03-02T05:49:35;7.20;99.90
12817;DHT22;6473;51.552;6.716;2024-03-02T05:52:02;7.30;99.90
12817;DHT22;6473;51.552;6.716;2024-03-02T05:54:29;7.30;99.90
12817;DHT22;6473;51.552;6.716;2024-03-02T05:56:56;7.40;99.90
12817;DHT22;6473;51.552;6.716;2024-03-02T05:59:41;7.40;99.90
12817;DHT22;6473;51.552;6.716;2024-03-02T06:02:08;7.50;99.90
12817;DHT22;6473;51.552;6.716;2024-03-02T06:04:36;10.60;99.90
12817;DHT22;6473;51.552;6.716;2024-03-02T06:07:03;7.50;99.90
12817;DHT22;6473;51.552;6.716;2024-03-02T06:09:30;7.50;99.90
12817;DHT22;6473;51.552;6.716;2024-03-02T06:11:57;10.40;99.90
12817;DHT22;6473;51.552;6.716;2024-03-02T06:14:23;7.40;99.90
12817;DHT22;6473;51.552;6.716;2024-03-02T07:05:29;8.00;99.90
12817;DHT22;6473;51.552;6.716;2024-03-02T07:07:58;7.90;99.90
12817;DHT22;6473;51.552;6.716;2024-03-02T07:10:30;9.70;99.90
12817;DHT22;6473;51.552;6.716;2024-03-02T07:12:58;8.30;99.80
12817;DHT22;6473;51.552;6.716;2024-03-02T07:15:25;8.60;99.90
12817;DHT22;6473;51.552;6.716;2024-03-02T07:45:10;8.90;90.10
12817;DHT22;6473;51.552;6.716;2024-03-02T07:47:39;6.30;90.90
12817;DHT22;6473;51.552;6.716;2024-03-02T07:50:12;8.90;88.50
12817;DHT22;6473;51.552;6.716;2024-03-02T07:57:49;9.60;89.10
12817;DHT22;6473;51.552;6.716;2024-03-02T08:00:22;8.90;90.70
12817;DHT22;6473;51.552;6.716;2024-03-02T08:02:55;8.90;91.10
12817;DHT22;6473;51.552;6.716;2024-03-02T08:05:29;8.70;90.80
12817;DHT22;6473;51.552;6.716;2024-03-02T08:12:52;8.70;91.20
12817;DHT22;6473;51.552;6.716;2024-03-02T08:18:11;9.40;79.00
12817;DHT22;6473;51.552;6.716;2024-03-02T08:20:41;6.30;78.70
12817;DHT22;6473;51.552;6.716;2024-03-02T08:23:09;13.40;78.00
12817;DHT22;6473;51.552;6.716;2024-03-02T08:25:47;8.00;72.00
12817;DHT22;6473;51.552;6.716;2024-03-02T08:30:55;9.30;79.00
12817;DHT22;6473;51.552;6.716;2024-03-02T08:33:25;9.30;78.50
12817;DHT22;6473;51.552;6.716;2024-03-02T08:35:52;9.30;79.30
12817;DHT22;6473;51.552;6.716;2024-03-02T08:38:19;9.30;79.20
12817;DHT22;6473;51.552;6.716;2024-03-02T08:40:47;9.30;80.00
12817;DHT22;6473;51.552;6.716;2024-03-02T08:43:14;9.90;68.10
12817;DHT22;6473;51.552;6.716;2024-03-02T08:45:41;11.60;69.60
12817;DHT22;6473;51.552;6.716;2024-03-02T08:48:08;10.20;67.10
12817;DHT22;6473;51.552;6.716;2024-03-02T08:50:37;10.60;57.00
12817;DHT22;6473;51.552;6.716;2024-03-02T08:53:05;10.80;49.40
12817;DHT22;6473;51.552;6.716;2024-03-02T08:55:32;10.40;55.60
12817;DHT22;6473;51.552;6.716;2024-03-02T08:57:59;12.00;56.50
12817;DHT22;6473;51.552;6.716;2024-03-02T09:00:26;10.40;55.30
12817;DHT22;6473;51.552;6.716;2024-03-02T09:02:54;10.60;53.80
12817;DHT22;6473;51.552;6.716;2024-03-02T09:05:21;10.50;53.00
12817;DHT22;6473;51.552;6.716;2024-03-02T09:07:54;10.50;52.60
12817;DHT22;6473;51.552;6.716;2024-03-02T09:10:22;10.70;48.10
12817;DHT22;6473;51.552;6.716;2024-03-02T09:12:49;10.80;46.60
12817;DHT22;6473;51.552;6.716;2024-03-02T09:15:16;10.80;44.50
12817;DHT22;6473;51.552;6.716;2024-03-02T09:17:45;10.60;50.60
12817;DHT22;6473;51.552;6.716;2024-03-02T09:22:43;11.00;44.80
12817;DHT22;6473;51.552;6.716;2024-03-02T09:25:14;12.70;41.20
12817;DHT22;6473;51.552;6.716;2024-03-02T09:27:43;12.50;43.50
12817;DHT22;6473;51.552;6.716;2024-03-02T09:30:12;11.10;44.00
12817;DHT22;6473;51.552;6.716;2024-03-02T09:32:39;10.90;40.80
12817;DHT22;6473;51.552;6.716;2024-03-02T09:35:07;11.80;43.80
12817;DHT22;6473;51.552;6.716;2024-03-02T09:37:34;11.20;40.10
12817;DHT22;6473;51.552;6.716;2024-03-02T09:40:05;13.10;35.60
12817;DHT22;6473;51.552;6.716;2024-03-02T09:42:36;11.50;31.40
12817;DHT22;6473;51.552;6.716;2024-03-02T09:45:07;11.40;33.00
12817;DHT22;6473;51.552;6.716;2024-03-02T09:47:34;11.90;25.90
12817;DHT22;6473;51.552;6.716;2024-03-02T09:50:05;11.90;25.60
12817;DHT22;6473;51.552;6.716;2024-03-02T09:52:36;11.30;29.90
12817;DHT22;6473;51.552;6.716;2024-03-02T09:55:08;11.60;23.60
12817;DHT22;6473;51.552;6.716;2024-03-02T09:57:36;11.70;18.30
12817;DHT22;6473;51.552;6.716;2024-03-02T10:00:06;14.00;19.20
12817;DHT22;6473;51.552;6.716;2024-03-02T10:02:33;11.40;20.70
12817;DHT22;6473;51.552;6.716;2024-03-02T10:05:00;11.70;19.50
12817;DHT22;6473;51.552;6.716;2024-03-02T10:07:35;13.90;13.50
12817;DHT22;6473;51.552;6.716;2024-03-02T10:10:13;12.10;11.40
12817;DHT22;6473;51.552;6.716;2024-03-02T10:12:41;12.50;4.40
12817;DHT22;6473;51.552;6.716;2024-03-02T10:15:08;12.40;4.10
12817;DHT22;6473;51.552;6.716;2024-03-02T10:17:36;12.40;1.00
12817;DHT22;6473;51.552;6.716;2024-03-02T10:20:26;12.40;1.00
12817;DHT22;6473;51.552;6.716;2024-03-02T10:22:54;12.20;1.00
12817;DHT22;6473;51.552;6.716;2024-03-02T10:25:31;12.30;1.00
12817;DHT22;6473;51.552;6.716;2024-03-02T10:28:05;12.00;1.00
12817;DHT22;6473;51.552;6.716;2024-03-02T10:30:36;10.70;1.00
12817;DHT22;6473;51.552;6.716;2024-03-02T10:33:09;11.40;1.00
12817;DHT22;6473;51.552;6.716;2024-03-02T10:35:36;15.10;1.00
12817;DHT22;6473;51.552;6.716;2024-03-02T10:38:05;12.90;1.00
12817;DHT22;6473;51.552;6.716;2024-03-02T10:40:33;12.90;1.00
12817;DHT22;6473;51.552;6.716;2024-03-02T10:43:07;13.40;1.00
12817;DHT22;6473;51.552;6.716;2024-03-02T11:01:11;14.40;1.00
12817;DHT22;6473;51.552;6.716;2024-03-02T11:11:03;14.00;1.00
12817;DHT22;6473;51.552;6.716;2024-03-02T11:13:33;14.10;1.00
12817;DHT22;6473;51.552;6.716;2024-03-02T11:38:52;15.70;1.00
12817;DHT22;6473;51.552;6.716;2024-03-02T11:41:21;15.70;1.00
12817;DHT22;6473;51.552;6.716;2024-03-02T11:43:48;15.70;1.00
12817;DHT22;6473;51.552;6.716;2024-03-02T11:46:17;15.40;1.00
12817;DHT22;6473;51.552;6.716;2024-03-02T11:48:49;14.90;1.00
12817;DHT22;6473;51.552;6.716;2024-03-02T11:51:16;16.10;1.00
12817;DHT22;6473;51.552;6.716;2024-03-02T11:58:16;14.30;1.00
12817;DHT22;6473;51.552;6.716;2024-03-02T12:00:43;14.90;1.00
12817;DHT22;6473;51.552;6.716;2024-03-02T12:03:13;15.20;1.00
12817;DHT22;6473;51.552;6.716;2024-03-02T12:05:41;16.90;1.00
12817;DHT22;6473;51.552;6.716;2024-03-02T12:08:09;15.90;1.00
12817;DHT22;6473;51.552;6.716;2024-03-02T12:10:36;17.70;1.00
12817;DHT22;6473;51.552;6.716;2024-03-02T12:13:05;17.20;1.00
12817;DHT22;6473;51.552;6.716;2024-03-02T12:42:16;14.40;1.00
12817;DHT22;6473;51.552;6.716;2024-03-02T12:49:15;13.80;1.00
12817;DHT22;6473;51.552;6.716;2024-03-02T12:51:43;15.20;1.00
12817;DHT22;6473;51.552;6.716;2024-03-02T12:54:12;14.10;1.00
12817;DHT22;6473;51.552;6.716;2024-03-02T12:56:41;14.90;1.00
12817;DHT22;6473;51.552;6.716;2024-03-02T12:59:18;14.70;1.00
12817;DHT22;6473;51.552;6.716;2024-03-02T13:01:50;15.10;1.00
12817;DHT22;6473;51.552;6.716;2024-03-02T13:04:22;13.60;1.00
12817;DHT22;6473;51.552;6.716;2024-03-02T13:10:57;15.70;1.00
12817;DHT22;6473;51.552;6.716;2024-03-02T13:48:23;13.70;1.00
12817;DHT22;6473;51.552;6.716;2024-03-02T13:50:51;15.50;1.00
12817;DHT22;6473;51.552;6.716;2024-03-02T13:53:19;14.00;1.00
12817;DHT22;6473;51.552;6.716;2024-03-02T13:55:46;14.20;1.00
12817;DHT22;6473;51.552;6.716;2024-03-02T13:58:13;14.00;1.00
12817;DHT22;6473;51.552;6.716;2024-03-02T14:00:40;15.20;1.00
12817;DHT22;6473;51.552;6.716;2024-03-02T14:03:07;14.00;1.00
12817;DHT22;6473;51.552;6.716;2024-03-02T14:06:02;14.00;1.00
12817;DHT22;6473;51.552;6.716;2024-03-02T14:08:29;13.90;1.00
12817;DHT22;6473;51.552;6.716;2024-03-02T14:10:58;15.60;1.00
12817;DHT22;6473;51.552;6.716;2024-03-02T14:13:26;16.30;1.00
12817;DHT22;6473;51.552;6.716;2024-03-02T14:15:54;15.10;1.00
12817;DHT22;6473;51.552;6.716;2024-03-02T14:26:56;13.70;1.00
12817;DHT22;6473;51.552;6.716;2024-03-02T14:29:28;13.70;1.00
12817;DHT22;6473;51.552;6.716;2024-03-02T14:31:55;13.70;1.00
12817;DHT22;6473;51.552;6.716;2024-03-02T14:34:22;13.60;1.00
12817;DHT22;6473;51.552;6.716;2024-03-02T14:36:49;13.60;1.00
12817;DHT22;6473;51.552;6.716;2024-03-02T14:39:16;13.70;1.00
12817;DHT22;6473;51.552;6.716;2024-03-02T14:41:46;14.00;1.00
12817;DHT22;6473;51.552;6.716;2024-03-02T14:44:16;14.30;1.00
12817;DHT22;6473;51.552;6.716;2024-03-02T14:46:46;14.30;1.00
12817;DHT22;6473;51.552;6.716;2024-03-02T14:49:14;15.00;1.00
12817;DHT22;6473;51.552;6.716;2024-03-02T14:51:44;18.30;1.00
12817;DHT22;6473;51.552;6.716;2024-03-02T14:54:14;14.90;1.00
12817;DHT22;6473;51.552;6.716;2024-03-02T14:56:41;15.70;1.00
12817;DHT22;6473;51.552;6.716;2024-03-02T14:59:16;15.90;1.00
12817;DHT22;6473;51.552;6.716;2024-03-02T15:01:44;16.80;1.00
12817;DHT22;6473;51.552;6.716;2024-03-02T15:04:11;17.50;1.00
12817;DHT22;6473;51.552;6.716;2024-03-02T15:06:39;17.30;1.00
12817;DHT22;6473;51.552;6.716;2024-03-02T15:09:08;15.70;1.00
12817;DHT22;6473;51.552;6.716;2024-03-02T15:11:41;15.00;1.00
12817;DHT22;6473;51.552;6.716;2024-03-02T15:14:07;15.30;1.00
12817;DHT22;6473;51.552;6.716;2024-03-02T15:16:37;14.60;1.00
12817;DHT22;6473;51.552;6.716;2024-03-02T15:19:05;14.60;1.00
12817;DHT22;6473;51.552;6.716;2024-03-02T15:21:35;14.70;1.00
12817;DHT22;6473;51.552;6.716;2024-03-02T15:24:02;14.60;1.00
12817;DHT22;6473;51.552;6.716;2024-03-02T16:02:29;14.30;1.00
12817;DHT22;6473;51.552;6.716;2024-03-02T16:04:56;14.20;1.00
12817;DHT22;6473;51.552;6.716;2024-03-02T16:07:23;14.10;1.00
12817;DHT22;6473;51.552;6.716;2024-03-02T16:09:49;14.10;1.00
12817;DHT22;6473;51.552;6.716;2024-03-02T16:12:16;14.10;1.00
12817;DHT22;6473;51.552;6.716;2024-03-02T16:17:12;14.00;1.00
12817;DHT22;6473;51.552;6.716;2024-03-02T16:27:17;11.40;1.00
12817;DHT22;6473;51.552;6.716;2024-03-02T16:29:44;12.50;1.00
12817;DHT22;6473;51.552;6.716;2024-03-02T16:32:12;16.40;1.00
12817;DHT22;6473;51.552;6.716;2024-03-02T16:34:39;16.00;1.00
12817;DHT22;6473;51.552;6.716;2024-03-02T16:37:05;13.80;1.00
12817;DHT22;6473;51.552;6.716;2024-03-02T16:47:46;13.80;1.00
12817;DHT22;6473;51.552;6.716;2024-03-02T16:53:34;13.70;1.00
12817;DHT22;6473;51.552;6.716;2024-03-02T16:56:01;13.70;1.00
12817;DHT22;6473;51.552;6.716;2024-03-02T16:58:29;13.70;1.00
12817;DHT22;6473;51.552;6.716;2024-03-02T17:00:56;14.10;1.00
12817;DHT22;6473;51.552;6.716;2024-03-02T17:03:24;13.70;1.00
12817;DHT22;6473;51.552;6.716;2024-03-02T17:32:22;13.40;1.00
12817;DHT22;6473;51.552;6.716;2024-03-02T17:38:21;13.40;1.00
12817;DHT22;6473;51.552;6.716;2024-03-02T17:40:48;13.40;1.00
12817;DHT22;6473;51.552;6.716;2024-03-02T17:43:16;16.00;1.00
12817;DHT22;6473;51.552;6.716;2024-03-02T17:45:43;13.40;1.00
12817;DHT22;6473;51.552;6.716;2024-03-02T17:48:11;14.40;1.00
12817;DHT22;6473;51.552;6.716;2024-03-02T17:50:38;13.30;1.00
12817;DHT22;6473;51.552;6.716;2024-03-02T17:53:05;13.40;1.00
12817;DHT22;6473;51.552;6.716;2024-03-02T17:55:32;13.30;1.00
12817;DHT22;6473;51.552;6.716;2024-03-02T17:57:59;13.30;1.00
12817;DHT22;6473;51.552;6.716;2024-03-02T18:00:27;13.30;1.00
12817;DHT22;6473;51.552;6.716;2024-03-02T18:02:54;13.20;1.00
12817;DHT22;6473;51.552;6.716;2024-03-02T18:05:22;13.30;1.00
12817;DHT22;6473;51.552;6.716;2024-03-02T18:07:49;13.30;1.00
12817;DHT22;6473;51.552;6.716;2024-03-02T18:10:16;13.30;1.00
12817;DHT22;6473;51.552;6.716;2024-03-02T18:12:43;12.20;1.00
12817;DHT22;6473;51.552;6.716;2024-03-02T18:24:05;13.20;1.00
12817;DHT22;6473;51.552;6.716;2024-03-02T18:26:32;13.20;1.00
12817;DHT22;6473;51.552;6.716;2024-03-02T18:29:00;15.40;1.00
12817;DHT22;6473;51.552;6.716;2024-03-02T18:31:28;13.20;1.00
12817;DHT22;6473;51.552;6.716;2024-03-02T18:33:55;13.20;1.00
12817;DHT22;6473;51.552;6.716;2024-03-02T18:36:22;15.10;1.00
12817;DHT22;6473;51.552;6.716;2024-03-02T18:39:18;13.20;1.00
12817;DHT22;6473;51.552;6.716;2024-03-02T18:41:45;13.20;1.00
12817;DHT22;6473;51.552;6.716;2024-03-02T18:44:12;13.10;1.00
12817;DHT22;6473;51.552;6.716;2024-03-02T18:46:39;13.10;1.00
12817;DHT22;6473;51.552;6.716;2024-03-02T18:49:07;13.20;1.00
12817;DHT22;6473;51.552;6.716;2024-03-02T18:51:33;13.10;1.00
12817;DHT22;6473;51.552;6.716;2024-03-02T18:54:02;14.00;1.00
12817;DHT22;6473;51.552;6.716;2024-03-02T19:08:10;13.00;1.00
12817;DHT22;6473;51.552;6.716;2024-03-02T19:10:40;13.00;1.00
12817;DHT22;6473;51.552;6.716;2024-03-02T19:13:07;13.00;1.00
12817;DHT22;6473;51.552;6.716;2024-03-02T19:15:34;15.70;1.00
12817;DHT22;6473;51.552;6.716;2024-03-02T19:18:01;13.00;1.00
12817;DHT22;6473;51.552;6.716;2024-03-02T19:20:28;12.90;1.00
12817;DHT22;6473;51.552;6.716;2024-03-02T19:22:58;13.00;1.00
12817;DHT22;6473;51.552;6.716;2024-03-02T19:25:27;12.90;1.00
12817;DHT22;6473;51.552;6.716;2024-03-02T19:27:54;12.80;1.00
12817;DHT22;6473;51.552;6.716;2024-03-02T19:30:21;12.80;1.00
12817;DHT22;6473;51.552;6.716;2024-03-02T19:32:48;14.80;1.00
12817;DHT22;6473;51.552;6.716;2024-03-02T19:35:15;12.90;1.00
12817;DHT22;6473;51.552;6.716;2024-03-02T19:37:42;12.90;1.00
12817;DHT22;6473;51.552;6.716;2024-03-02T19:44:28;12.80;1.00
12817;DHT22;6473;51.552;6.716;2024-03-02T19:46:58;12.80;1.00
12817;DHT22;6473;51.552;6.716;2024-03-02T19:49:25;12.80;1.00
12817;DHT22;6473;51.552;6.716;2024-03-02T19:51:52;12.80;1.00
12817;DHT22;6473;51.552;6.716;2024-03-02T19:54:19;12.70;1.00
12817;DHT22;6473;51.552;6.716;2024-03-02T19:56:45;13.00;1.00
12817;DHT22;6473;51.552;6.716;2024-03-02T19:59:12;12.70;1.00
12817;DHT22;6473;51.552;6.716;2024-03-02T20:01:41;15.20;1.00
12817;DHT22;6473;51.552;6.716;2024-03-02T20:04:08;12.60;1.00
12817;DHT22;6473;51.552;6.716;2024-03-02T20:06:35;12.70;1.00
12817;DHT22;6473;51.552;6.716;2024-03-02T20:09:02;12.70;1.00
12817;DHT22;6473;51.552;6.716;2024-03-02T20:11:31;15.90;1.00
12817;DHT22;6473;51.552;6.716;2024-03-02T20:13:59;12.70;1.00
12817;DHT22;6473;51.552;6.716;2024-03-02T20:16:26;12.80;1.00
12817;DHT22;6473;51.552;6.716;2024-03-02T20:18:54;12.80;1.00
12817;DHT22;6473;51.552;6.716;2024-03-02T20:21:21;12.80;1.00
12817;DHT22;6473;51.552;6.716;2024-03-02T20:23:48;12.80;1.00
12817;DHT22;6473;51.552;6.716;2024-03-02T20:26:15;12.80;1.00
12817;DHT22;6473;51.552;6.716;2024-03-02T20:28:43;12.70;1.00
12817;DHT22;6473;51.552;6.716;2024-03-02T20:31:10;12.70;1.00
12817;DHT22;6473;51.552;6.716;2024-03-02T20:33:39;12.60;1.00
12817;DHT22;6473;51.552;6.716;2024-03-02T20:36:11;12.70;1.00
12817;DHT22;6473;51.552;6.716;2024-03-02T20:38:38;12.60;1.00
12817;DHT22;6473;51.552;6.716;2024-03-02T20:41:05;12.60;1.00
12817;DHT22;6473;51.552;6.716;2024-03-02T20:43:35;12.60;1.00
12817;DHT22;6473;51.552;6.716;2024-03-02T20:46:02;12.60;1.00
12817;DHT22;6473;51.552;6.716;2024-03-02T20:48:32;12.60;1.00
12817;DHT22;6473;51.552;6.716;2024-03-02T20:50:58;12.60;1.00
12817;DHT22;6473;51.552;6.716;2024-03-02T20:53:27;12.80;1.00
12817;DHT22;6473;51.552;6.716;2024-03-02T20:55:54;12.60;1.00
12817;DHT22;6473;51.552;6.716;2024-03-02T20:58:21;12.60;1.00
12817;DHT22;6473;51.552;6.716;2024-03-02T21:00:48;13.30;1.00
12817;DHT22;6473;51.552;6.716;2024-03-02T21:03:23;12.50;1.00
12817;DHT22;6473;51.552;6.716;2024-03-02T21:05:50;12.80;1.00
12817;DHT22;6473;51.552;6.716;2024-03-02T21:08:17;12.50;1.00
12817;DHT22;6473;51.552;6.716;2024-03-02T21:10:45;13.10;1.00
12817;DHT22;6473;51.552;6.716;2024-03-02T21:13:13;13.50;1.00
12817;DHT22;6473;51.552;6.716;2024-03-02T21:15:40;12.40;1.00
12817;DHT22;6473;51.552;6.716;2024-03-02T21:18:07;12.40;1.00
12817;DHT22;6473;51.552;6.716;2024-03-02T21:20:34;12.40;1.00
12817;DHT22;6473;51.552;6.716;2024-03-02T21:23:01;12.40;1.00
12817;DHT22;6473;51.552;6.716;2024-03-02T21:25:29;12.40;1.00
12817;DHT22;6473;51.552;6.716;2024-03-02T21:28:01;12.60;1.00
12817;DHT22;6473;51.552;6.716;2024-03-02T21:30:35;13.70;1.00
12817;DHT22;6473;51.552;6.716;2024-03-02T21:33:02;12.30;1.00
12817;DHT22;6473;51.552;6.716;2024-03-02T21:35:29;12.20;1.00
12817;DHT22;6473;51.552;6.716;2024-03-02T21:37:57;12.20;1.00
12817;DHT22;6473;51.552;6.716;2024-03-02T21:40:24;14.00;3.20
12817;DHT22;6473;51.552;6.716;2024-03-02T21:42:51;12.10;3.40
12817;DHT22;6473;51.552;6.716;2024-03-02T21:45:19;12.10;3.80
12817;DHT22;6473;51.552;6.716;2024-03-02T21:48:18;12.10;5.00
12817;DHT22;6473;51.552;6.716;2024-03-02T21:50:45;12.10;5.80
12817;DHT22;6473;51.552;6.716;2024-03-02T21:53:12;12.00;6.80
12817;DHT22;6473;51.552;6.716;2024-03-02T21:55:39;12.00;7.50
12817;DHT22;6473;51.552;6.716;2024-03-02T21:58:05;12.00;8.40
12817;DHT22;6473;51.552;6.716;2024-03-02T22:00:33;12.00;8.80
12817;DHT22;6473;51.552;6.716;2024-03-02T22:03:01;12.20;8.90
12817;DHT22;6473;51.552;6.716;2024-03-02T22:05:28;12.00;10.30
12817;DHT22;6473;51.552;6.716;2024-03-02T22:07:55;11.90;11.40
12817;DHT22;6473;51.552;6.716;2024-03-02T22:10:22;11.90;10.60
12817;DHT22;6473;51.552;6.716;2024-03-02T22:12:49;12.00;10.80